createdAt,value
2022-08-06T00:02:35.895Z,92.29
2022-08-06T00:06:00.796Z,91.74
2022-08-06T00:09:24.744Z,90.28
2022-08-06T00:12:49.929Z,87.56
2022-08-06T00:16:36.249Z,89.27
2022-08-06T00:19:58.320Z,89.47
2022-08-06T00:23:25.018Z,87.82
2022-08-06T00:26:51.549Z,88.28
2022-08-06T00:30:30.718Z,88.23
2022-08-06T00:33:59.802Z,86.20
2022-08-06T00:37:28.965Z,86.35
2022-08-06T00:41:10.744Z,85.52
2022-08-06T00:44:37.791Z,85.43
2022-08-06T00:48:06.796Z,86.98
2022-08-06T00:51:50.864Z,85.76
2022-08-06T00:55:17.562Z,84.34
2022-08-06T00:58:42.780Z,84.57
2022-08-06T01:02:10.159Z,81.57
2022-08-06T01:06:52.729Z,79.85
2022-08-06T01:09:19.750Z,78.24
2022-08-06T01:12:43.810Z,78.74
2022-08-06T01:16:39.027Z,77.38
2022-08-06T01:21:58.798Z,76.18
2022-08-06T01:23:58.748Z,77.32
2022-08-06T01:27:46.812Z,75.39
2022-08-06T01:31:20.784Z,76.27
2022-08-06T01:35:05.784Z,74.89
2022-08-06T01:38:36.771Z,75.23
2022-08-06T01:42:09.819Z,74.61
2022-08-06T01:45:54.842Z,73.51
2022-08-06T01:49:26.503Z,71.88
2022-08-06T01:53:00.296Z,71.76
2022-08-06T01:56:31.191Z,69.30
2022-08-06T02:00:10.780Z,69.50
2022-08-06T02:03:53.162Z,70.01
2022-08-06T02:08:37.567Z,69.98
2022-08-06T02:12:01.368Z,70.12
2022-08-06T02:14:58.783Z,70.28
2022-08-06T02:18:34.146Z,73.09
2022-08-06T02:22:01.809Z,72.13
2022-08-06T02:25:34.408Z,72.33
2022-08-06T02:28:58.910Z,70.52
2022-08-06T02:32:25.820Z,71.99
2022-08-06T02:36:26.371Z,72.84
2022-08-06T02:40:01.528Z,74.66
2022-08-06T02:43:33.311Z,74.54
2022-08-06T02:47:04.755Z,72.61
2022-08-06T02:50:40.816Z,72.13
2022-08-06T02:54:25.075Z,72.06
2022-08-06T02:57:58.202Z,72.14
2022-08-06T03:01:43.131Z,72.35
2022-08-06T03:05:10.843Z,70.08
2022-08-06T03:08:38.784Z,72.90
2022-08-06T03:12:02.849Z,71.81
2022-08-06T03:15:39.227Z,72.20
2022-08-06T03:19:55.005Z,74.34
2022-08-06T03:22:55.775Z,74.58
2022-08-06T03:26:20.869Z,72.98
2022-08-06T03:29:46.236Z,73.39
2022-08-06T03:33:29.926Z,73.65
2022-08-06T03:36:56.825Z,71.95
2022-08-06T03:40:21.846Z,71.50
2022-08-06T03:44:03.150Z,73.65
2022-08-06T03:47:49.203Z,73.35
2022-08-06T03:51:51.929Z,75.23
2022-08-06T03:55:22.675Z,75.89
2022-08-06T03:58:48.815Z,76.63
2022-08-06T04:02:24.768Z,77.15
2022-08-06T04:05:57.947Z,77.81
2022-08-06T04:09:33.890Z,78.77
2022-08-06T04:14:01.477Z,79.09
2022-08-06T04:16:52.848Z,78.68
2022-08-06T04:20:41.044Z,80.03
2022-08-06T04:23:57.823Z,80.43
2022-08-06T04:27:23.858Z,81.21
2022-08-06T04:30:54.816Z,81.63
2022-08-06T04:34:18.814Z,81.21
2022-08-06T04:37:44.839Z,82.19
2022-08-06T04:41:16.430Z,82.77
2022-08-06T04:44:44.365Z,83.39
2022-08-06T04:48:09.853Z,83.42
2022-08-06T04:52:45.597Z,83.85
2022-08-06T04:55:34.744Z,85.04
2022-08-06T04:59:00.921Z,85.74
2022-08-06T05:02:26.016Z,85.31
2022-08-06T05:06:31.852Z,86.21
2022-08-06T05:09:58.571Z,85.38
2022-08-06T05:13:35.539Z,85.44
2022-08-06T05:17:08.357Z,85.63
2022-08-06T05:20:34.923Z,86.52
2022-08-06T05:24:06.860Z,86.97
2022-08-06T05:27:54.792Z,87.77
2022-08-06T05:31:15.104Z,88.53
2022-08-06T05:34:38.825Z,88.39
2022-08-06T05:38:21.101Z,88.57
2022-08-06T05:41:59.882Z,89.81
2022-08-06T05:45:28.841Z,89.71
2022-08-06T05:49:31.409Z,90.60
2022-08-06T05:53:04.843Z,90.25
2022-08-06T05:56:38.723Z,90.02
2022-08-06T06:00:02.468Z,90.56
2022-08-06T06:03:33.508Z,90.32
2022-08-06T06:06:59.881Z,89.08
2022-08-06T06:10:28.963Z,89.27
2022-08-06T06:13:59.985Z,89.46
2022-08-06T06:18:01.957Z,89.80
2022-08-06T06:21:53.891Z,90.10
2022-08-06T06:25:41.916Z,89.87
2022-08-06T06:29:33.858Z,89.60
2022-08-06T06:33:16.878Z,89.45
2022-08-06T06:37:12.912Z,90.28
2022-08-06T06:41:19.881Z,91.21
2022-08-06T06:45:04.316Z,91.45
2022-08-06T06:48:56.919Z,91.49
2022-08-06T06:52:56.889Z,90.70
2022-08-06T06:56:22.059Z,90.02
2022-08-06T07:00:01.358Z,90.73
2022-08-06T07:03:42.874Z,90.57
2022-08-06T07:07:15.101Z,90.90
2022-08-06T07:10:48.068Z,90.93
2022-08-06T07:14:13.871Z,90.79
2022-08-06T07:17:46.350Z,90.35
2022-08-06T07:21:12.910Z,90.63
2022-08-06T07:24:45.916Z,89.72
2022-08-06T07:28:13.941Z,90.08
2022-08-06T07:31:45.899Z,89.89
2022-08-06T07:35:12.478Z,90.48
2022-08-06T07:38:38.454Z,90.80
2022-08-06T07:42:10.873Z,90.93
2022-08-06T07:45:51.064Z,91.29
2022-08-06T07:49:20.920Z,90.81
2022-08-06T07:52:44.934Z,90.75
2022-08-06T07:56:11.637Z,90.70
2022-08-06T07:59:35.861Z,90.93
2022-08-06T08:03:43.594Z,90.80
2022-08-06T08:06:55.465Z,90.82
2022-08-06T08:10:15.911Z,90.33
2022-08-06T08:13:44.495Z,90.49
2022-08-06T08:17:08.905Z,90.88
2022-08-06T08:20:36.458Z,91.46
2022-08-06T08:24:01.980Z,91.12
2022-08-06T08:27:27.085Z,91.42
2022-08-06T08:30:54.982Z,91.34
2022-08-06T08:34:20.941Z,91.79
2022-08-06T08:37:51.959Z,90.85
2022-08-06T08:41:49.607Z,90.50
2022-08-06T08:45:15.797Z,90.23
2022-08-06T08:48:41.961Z,90.69
2022-08-06T08:52:11.400Z,90.87
2022-08-06T08:57:10.617Z,90.63
2022-08-06T08:59:59.865Z,91.76
2022-08-06T09:03:12.730Z,91.80
2022-08-06T09:06:39.859Z,92.10
2022-08-06T09:10:04.964Z,92.82
2022-08-06T09:13:31.976Z,91.89
2022-08-06T09:17:18.116Z,92.35
2022-08-06T09:20:59.952Z,92.40
2022-08-06T09:24:24.787Z,91.89
2022-08-06T09:27:59.312Z,91.92
2022-08-06T09:31:34.408Z,91.93
2022-08-06T09:35:17.062Z,92.02
2022-08-06T09:38:48.015Z,92.06
2022-08-06T09:42:12.935Z,92.04
2022-08-06T09:45:42.250Z,92.30
2022-08-06T09:49:48.916Z,91.95
2022-08-06T09:53:20.857Z,92.63
2022-08-06T09:56:45.963Z,92.73
2022-08-06T10:00:15.336Z,92.75
2022-08-06T10:04:02.510Z,93.18
2022-08-06T10:07:25.191Z,92.47
2022-08-06T10:11:05.352Z,93.06
2022-08-06T10:14:42.004Z,92.38
2022-08-06T10:18:05.983Z,92.70
2022-08-06T10:21:48.926Z,92.73
2022-08-06T10:25:24.787Z,93.02
2022-08-06T10:28:55.916Z,93.33
2022-08-06T10:32:21.015Z,93.48
2022-08-06T10:35:54.928Z,93.58
2022-08-06T10:40:09.319Z,93.54
2022-08-06T10:43:06.953Z,93.85
2022-08-06T10:46:31.985Z,91.82
2022-08-06T10:50:30.362Z,90.58
2022-08-06T10:54:00.557Z,89.45
2022-08-06T10:57:34.063Z,89.62
2022-08-06T11:01:00.973Z,88.92
2022-08-06T11:04:32.942Z,90.04
2022-08-06T11:08:56.308Z,89.83
2022-08-06T11:12:36.593Z,90.06
2022-08-06T11:15:53.999Z,89.88
2022-08-06T11:19:28.258Z,91.34
2022-08-06T11:22:59.543Z,91.60
2022-08-06T11:26:25.957Z,92.11
2022-08-06T11:30:26.241Z,90.96
2022-08-06T11:33:52.940Z,89.80
2022-08-06T11:38:00.117Z,89.64
2022-08-06T11:41:50.904Z,90.77
2022-08-06T11:46:20.450Z,92.74
2022-08-06T11:49:18.242Z,92.30
2022-08-06T11:52:48.946Z,92.92
2022-08-06T11:56:25.529Z,92.80
2022-08-06T12:00:23.021Z,94.19
2022-08-06T12:03:55.006Z,93.84
2022-08-06T12:07:38.189Z,93.95
2022-08-06T12:11:39.049Z,94.35
2022-08-06T12:14:56.631Z,93.84
2022-08-06T12:18:19.322Z,94.47
2022-08-06T12:21:49.203Z,95.36
2022-08-06T12:25:15.124Z,94.92
2022-08-06T12:28:39.985Z,95.17
2022-08-06T12:32:04.046Z,95.62
2022-08-06T12:35:31.021Z,96.31
2022-08-06T12:38:58.541Z,95.59
2022-08-06T12:42:53.993Z,95.87
2022-08-06T12:46:24.009Z,96.40
2022-08-06T12:49:53.019Z,96.40
2022-08-06T12:53:20.755Z,95.81
2022-08-06T12:56:47.984Z,96.21
2022-08-06T13:00:14.858Z,96.37
2022-08-06T13:03:39.994Z,97.06
2022-08-06T13:07:05.035Z,96.31
2022-08-06T13:10:36.262Z,96.01
2022-08-06T13:14:17.778Z,95.40
2022-08-06T13:17:59.817Z,95.65
2022-08-06T13:21:58.111Z,95.47
2022-08-06T13:25:48.199Z,95.28
2022-08-06T13:30:32.823Z,95.01
2022-08-06T13:33:38.597Z,95.01
2022-08-06T13:37:15.865Z,94.22
2022-08-06T13:41:03.719Z,94.75
2022-08-06T13:45:03.039Z,94.55
2022-08-06T13:48:47.253Z,94.80
2022-08-06T13:52:13.109Z,94.70
2022-08-06T13:56:01.964Z,94.24
2022-08-06T13:59:40.035Z,94.50
2022-08-06T14:03:13.906Z,94.09
2022-08-06T14:06:41.263Z,94.41
2022-08-06T14:10:08.770Z,94.66
2022-08-06T14:13:34.061Z,94.68
2022-08-06T14:17:00.069Z,94.73
2022-08-06T14:20:25.893Z,94.40
2022-08-06T14:24:00.288Z,94.45
2022-08-06T14:27:26.229Z,94.35
2022-08-06T14:30:55.925Z,94.53
2022-08-06T14:34:20.098Z,93.80
2022-08-06T14:38:02.038Z,93.58
2022-08-06T14:41:52.225Z,94.30
2022-08-06T14:45:21.689Z,93.74
2022-08-06T14:48:48.749Z,94.17
2022-08-06T14:52:19.174Z,93.92
2022-08-06T14:56:07.591Z,94.31
2022-08-06T14:59:48.285Z,93.92
2022-08-06T15:03:13.579Z,94.44
2022-08-06T15:06:53.254Z,94.45
2022-08-06T15:10:27.536Z,94.30
2022-08-06T15:13:53.854Z,94.44
2022-08-06T15:17:49.111Z,93.60
2022-08-06T15:21:03.225Z,93.90
2022-08-06T15:24:28.094Z,94.58
2022-08-06T15:27:53.122Z,93.42
2022-08-06T15:31:17.035Z,93.37
2022-08-06T15:34:44.617Z,93.58
2022-08-06T15:38:16.146Z,94.03
2022-08-06T15:41:43.201Z,94.55
2022-08-06T15:45:49.513Z,96.33
2022-08-06T15:48:55.934Z,96.69
2022-08-06T15:52:20.040Z,96.84
2022-08-06T15:55:45.106Z,97.45
2022-08-06T15:59:12.456Z,98.13
2022-08-06T16:02:42.464Z,98.59
2022-08-06T16:06:23.638Z,99.00
2022-08-06T16:10:03.170Z,99.25
2022-08-06T16:13:36.045Z,99.76
2022-08-06T16:17:01.131Z,100.00
2022-08-06T16:20:31.971Z,100.00
2022-08-06T16:24:03.581Z,100.00
2022-08-06T16:27:37.649Z,100.00
2022-08-06T16:31:11.190Z,100.00
2022-08-06T16:34:39.079Z,100.00
2022-08-06T16:38:12.324Z,100.00
2022-08-06T16:41:58.592Z,100.00
2022-08-06T16:45:24.149Z,100.00
2022-08-06T16:49:01.125Z,100.00
2022-08-06T16:52:42.682Z,100.00
2022-08-06T16:56:09.071Z,100.00
2022-08-06T16:59:42.838Z,100.00
2022-08-06T17:03:07.991Z,100.00
2022-08-06T17:06:34.279Z,100.00
2022-08-06T17:10:00.515Z,100.00
2022-08-06T17:13:39.452Z,100.00
2022-08-06T17:17:10.392Z,100.00
2022-08-06T17:20:37.162Z,100.00
2022-08-06T17:24:05.115Z,100.00
2022-08-06T17:27:44.798Z,100.00
2022-08-06T17:34:53.120Z,100.00
2022-08-06T17:38:17.157Z,100.00
2022-08-06T17:41:46.790Z,100.00
2022-08-06T17:45:13.158Z,100.00
2022-08-06T17:48:39.112Z,100.00
2022-08-06T17:52:03.194Z,100.00
2022-08-06T17:55:37.102Z,100.00
2022-08-06T17:59:16.431Z,100.00
2022-08-06T18:02:42.132Z,100.00
2022-08-06T18:06:16.706Z,100.00
2022-08-06T18:10:11.388Z,100.00
2022-08-06T18:13:53.142Z,100.00
2022-08-06T18:17:17.230Z,100.00
2022-08-06T18:20:43.119Z,100.00
2022-08-06T18:24:03.181Z,100.00
2022-08-06T18:28:03.767Z,100.00
2022-08-06T18:31:14.182Z,100.00
2022-08-06T18:34:52.594Z,100.00
2022-08-06T18:38:16.187Z,100.00
2022-08-06T18:41:40.169Z,100.00
2022-08-06T18:45:04.173Z,100.00
2022-08-06T18:48:29.260Z,100.00
2022-08-06T18:51:53.185Z,100.00
2022-08-06T18:55:39.464Z,100.00
2022-08-06T18:59:22.708Z,100.00
2022-08-06T19:02:49.010Z,100.00
2022-08-06T19:06:14.254Z,100.00
2022-08-06T19:09:41.159Z,100.00
2022-08-06T19:13:08.671Z,100.00
2022-08-06T19:16:38.161Z,100.00
2022-08-06T19:20:19.662Z,100.00
2022-08-06T19:24:02.416Z,100.00
2022-08-06T19:28:29.836Z,100.00
2022-08-06T19:31:23.259Z,100.00
2022-08-06T19:34:50.132Z,100.00
2022-08-06T19:38:16.218Z,100.00
2022-08-06T19:42:00.461Z,100.00
2022-08-06T19:46:30.044Z,100.00
2022-08-06T19:49:09.127Z,100.00
2022-08-06T19:52:38.242Z,100.00
2022-08-06T19:56:06.508Z,100.00
2022-08-06T20:00:51.662Z,100.00
2022-08-06T20:03:16.243Z,100.00
2022-08-06T20:07:01.596Z,100.00
2022-08-06T20:10:36.115Z,100.00
2022-08-06T20:14:01.161Z,100.00
2022-08-06T20:17:29.574Z,100.00
2022-08-06T20:21:00.078Z,100.00
2022-08-06T20:24:25.203Z,100.00
2022-08-06T20:29:09.719Z,100.00
2022-08-06T20:31:36.209Z,100.00
2022-08-06T20:35:03.266Z,100.00
2022-08-06T20:38:33.408Z,100.00
2022-08-06T20:42:08.266Z,100.00
2022-08-06T20:45:56.926Z,100.00
2022-08-06T20:49:29.431Z,100.00
2022-08-06T20:53:05.281Z,100.00
2022-08-06T20:56:34.161Z,100.00
2022-08-06T20:59:59.656Z,100.00
2022-08-06T21:05:11.053Z,100.00
2022-08-06T21:07:08.276Z,100.00
2022-08-06T21:10:39.211Z,100.00
2022-08-06T21:14:07.926Z,100.00
2022-08-06T21:17:35.964Z,100.00
2022-08-06T21:21:04.197Z,100.00
2022-08-06T21:24:28.208Z,100.00
2022-08-06T21:27:58.544Z,100.00
2022-08-06T21:31:24.565Z,100.00
2022-08-06T21:34:49.225Z,100.00
2022-08-06T21:38:26.015Z,100.00
2022-08-06T21:41:58.789Z,100.00
2022-08-06T21:45:50.401Z,100.00
2022-08-06T21:49:15.205Z,100.00
2022-08-06T21:52:45.177Z,100.00
2022-08-06T21:56:37.362Z,99.76
2022-08-06T21:59:54.192Z,100.00
2022-08-06T22:04:36.663Z,99.75
2022-08-06T22:07:07.252Z,99.88
2022-08-06T22:10:32.815Z,99.65
2022-08-06T22:14:01.084Z,98.71
2022-08-06T22:17:59.791Z,99.03
2022-08-06T22:21:14.366Z,99.22
2022-08-06T22:24:38.222Z,98.73
2022-08-06T22:28:03.207Z,98.28
2022-08-06T22:31:55.852Z,98.27
2022-08-06T22:35:12.256Z,97.78
2022-08-06T22:38:36.280Z,98.06
2022-08-06T22:42:06.410Z,97.58
2022-08-06T22:46:00.284Z,96.50
2022-08-06T22:49:16.206Z,96.07
2022-08-06T22:53:03.134Z,95.88
2022-08-06T22:56:28.395Z,95.75
2022-08-06T23:00:07.024Z,95.18
2022-08-06T23:03:39.058Z,94.88
2022-08-06T23:07:09.358Z,95.29
2022-08-06T23:10:35.233Z,95.11
2022-08-06T23:14:00.647Z,94.40
2022-08-06T23:17:25.480Z,94.90
2022-08-06T23:21:24.237Z,94.68
2022-08-06T23:25:03.560Z,95.25
2022-08-06T23:28:35.230Z,94.56
2022-08-06T23:32:02.310Z,93.72
2022-08-06T23:35:36.542Z,93.72
2022-08-06T23:39:02.358Z,92.73
2022-08-06T23:42:27.259Z,91.90
2022-08-06T23:45:52.247Z,92.41
2022-08-06T23:49:17.221Z,92.75
2022-08-06T23:52:41.955Z,92.26
2022-08-06T23:56:15.281Z,92.54
2022-08-06T23:59:44.870Z,93.09
